Pagrindinis puslapis
METAR-TAF:

METAR-TAF

Oro uostai :

Vamdrup

Koldingas, Danija

platuma: 55-26N, ilguma: 009-20E, Aukštis: 44 m

Dabartinis oras

Ataskaita buvo paskelbta 23 minutes, ne 07:20 UTC
Vėjas 16 kt iš Pietų/Pietryčių
Temperatūra 4°C
Drėgmė 87%
Slėgis 984 hPa

METAR: EKVD 150720Z AUTO 16016KT //// ///////// 04/02 Q0984

Laikas: 08:43 (07:43 UTC)

Prognozė

Ataskaita buvo paskelbta 19 valandos ir 51 minutes, ne 11:52 UTC
Prognozė galioja nuo 14 metu 12 UTC su 14 metu 16 UTC
Vėjas 15 kt iš Pietų/Pietvakarių
Matomumas: 4000 m
Su prošvaistėmis ne aukštis 800 ft
lietus, dulksna, rūkana
Tapsmas
nuo 14 metu 12 UTC su 14 metu 14 UTC
Matomumas 10 km arba daugiau
Išsisklaidę debesys ne aukštis 1000 ft
Su prošvaistėmis ne aukštis 1500 ft
Laikinai
nuo 14 metu 14 UTC su 14 metu 16 UTC
Matomumas: 4000 m
Su prošvaistėmis ne aukštis 800 ft
Su prošvaistėmis ne aukštis 1500 ft, Liūtiniai kamuoliniai debesys.
lietus

TAF: EKVD 141152Z 1412/1416 20015KT 4000 -RADZ BR BKN008 BECMG 1412/1414 9999 NSW SCT010 BKN015 TEMPO 1414/1416 4000 SHRA BKN008 BKN015CB

Orai ataskaitas ir orų prognozės (METAR, TAF).

turimą stotys yra geltonos ir raudonos taškus žemėlapyje.

Perkelti pele per norėdami pamatyti stoties vardą.

Tada spustelėkite, norėdami matyti oro stebėjimo ir prognozės.

Norėdami pakeisti žemėlapį: spustelėkite ant žalios mygtukų su juodo kryžiaus žemyn,; žalią mygtuką su brūkšneliu, jei norite nutolinti; arba žalių rodyklių gretimoms žemėlapius.


METAR-TAF: